Time;durP1;ratioP1;P1;durP2;ratioP2;P2;SDS_P1;SDS_P2;PMS_P1;PMS_P2;Temp;Humidity;BMP_temperature;BMP_pressure;BME280_temperature;BME280_humidity;BME280_pressure;Samples;Min_cycle;Max_cycle;Signal;HPM_P1;HPM_P2
2023/06/05 00:01:11;;;;;;;2.70;2.00;;;;;;;;;;4968973;28;20234;-71
2023/06/05 00:03:37;;;;;;;2.37;2.17;;;;;;;;;;4954343;28;20225;-72
2023/06/05 00:06:03;;;;;;;1.90;1.80;;;;;;;;;;4987071;28;20269;-72
2023/06/05 00:08:31;;;;;;;2.30;2.07;;;;;;;;;;4982175;28;20289;-71
2023/06/05 00:11:00;;;;;;;1.97;1.87;;;;;;;;;;4982546;28;20770;-70
2023/06/05 00:13:25;;;;;;;3.57;2.10;;;;;;;;;;4978373;28;20229;-71
2023/06/05 00:15:53;;;;;;;2.87;2.10;;;;;;;;;;4963176;28;20229;-71
2023/06/05 00:18:21;;;;;;;2.67;2.30;;;;;;;;;;4958470;28;20604;-71
2023/06/05 00:20:49;;;;;;;5.33;2.53;;;;;;;;;;4986829;28;20229;-70
2023/06/05 00:23:15;;;;;;;2.87;2.13;;;;;;;;;;4980705;28;20628;-71
2023/06/05 00:25:48;;;;;;;3.30;2.23;;;;;;;;;;4956842;28;20225;-71
2023/06/05 00:28:16;;;;;;;2.40;2.20;;;;;;;;;;4992528;28;20236;-71
2023/06/05 00:30:43;;;;;;;2.33;2.20;;;;;;;;;;4988337;28;20657;-71
2023/06/05 00:33:12;;;;;;;2.57;2.37;;;;;;;;;;4991779;28;20723;-72
2023/06/05 00:35:41;;;;;;;2.70;2.50;;;;;;;;;;4954553;28;20684;-72
2023/06/05 00:38:14;;;;;;;2.70;2.20;;;;;;;;;;4970808;28;20660;-72
2023/06/05 00:40:40;;;;;;;2.23;2.03;;;;;;;;;;4964965;28;20726;-72
2023/06/05 00:43:08;;;;;;;2.70;2.47;;;;;;;;;;5007937;28;20214;-73
2023/06/05 00:45:34;;;;;;;3.60;2.60;;;;;;;;;;4997502;28;20611;-71
2023/06/05 00:48:02;;;;;;;2.53;2.33;;;;;;;;;;4982323;28;20233;-72
2023/06/05 00:50:32;;;;;;;2.53;2.33;;;;;;;;;;4962052;28;20252;-71
2023/06/05 00:53:03;;;;;;;2.97;2.63;;;;;;;;;;4964436;28;20238;-71
2023/06/05 00:55:33;;;;;;;4.03;2.40;;;;;;;;;;4972397;28;20312;-71
2023/06/05 00:58:00;;;;;;;2.70;2.50;;;;;;;;;;4985746;28;20309;-71
2023/06/05 01:00:26;;;;;;;3.37;2.77;;;;;;;;;;4978915;28;20221;-71
2023/06/05 01:02:53;;;;;;;2.60;2.40;;;;;;;;;;4964908;28;20260;-72
2023/06/05 01:05:20;;;;;;;3.70;2.53;;;;;;;;;;4995758;28;20228;-72
2023/06/05 01:07:47;;;;;;;3.33;2.60;;;;;;;;;;4953686;28;20221;-71
2023/06/05 01:10:15;;;;;;;3.43;2.90;;;;;;;;;;4970182;28;20232;-71
2023/06/05 01:12:58;;;;;;;4.13;2.67;;;;;;;;;;4997557;28;20214;-72
2023/06/05 01:15:31;;;;;;;3.07;2.77;;;;;;;;;;4984822;28;20241;-71
2023/06/05 01:18:00;;;;;;;2.73;2.53;;;;;;;;;;4982386;28;20608;-72
2023/06/05 01:20:34;;;;;;;3.17;2.90;;;;;;;;;;4995470;28;20715;-72
2023/06/05 01:23:02;;;;;;;3.07;2.80;;;;;;;;;;4972235;28;20222;-71
2023/06/05 01:25:29;;;;;;;4.00;2.87;;;;;;;;;;4982317;28;20281;-72
2023/06/05 01:28:00;;;;;;;3.43;3.10;;;;;;;;;;4978327;28;20278;-73
2023/06/05 01:30:36;;;;;;;4.60;3.20;;;;;;;;;;4970539;28;20657;-72
2023/06/05 01:33:12;;;;;;;3.53;2.90;;;;;;;;;;4967331;28;20229;-71
2023/06/05 01:35:41;;;;;;;4.53;3.20;;;;;;;;;;4987132;28;20217;-71
2023/06/05 01:38:09;;;;;;;3.63;2.93;;;;;;;;;;4957508;28;20221;-72
2023/06/05 01:40:37;;;;;;;5.47;3.33;;;;;;;;;;4980728;28;20217;-72
2023/06/05 01:43:06;;;;;;;4.10;3.63;;;;;;;;;;4981587;28;20225;-72
2023/06/05 01:45:37;;;;;;;3.47;2.90;;;;;;;;;;4967130;28;20241;-71
2023/06/05 01:48:04;;;;;;;5.47;3.63;;;;;;;;;;4996229;28;20221;-73
2023/06/05 01:50:33;;;;;;;5.83;3.13;;;;;;;;;;4974874;28;20312;-71
2023/06/05 01:53:02;;;;;;;5.00;3.20;;;;;;;;;;4990663;28;20276;-72
2023/06/05 01:55:29;;;;;;;4.73;3.50;;;;;;;;;;4952684;28;20969;-71
2023/06/05 01:57:54;;;;;;;5.20;3.70;;;;;;;;;;4982174;28;20680;-71
2023/06/05 02:00:20;;;;;;;5.10;3.60;;;;;;;;;;4979056;28;20225;-72
2023/06/05 02:02:47;;;;;;;3.60;3.30;;;;;;;;;;4984554;28;20225;-71
2023/06/05 02:05:19;;;;;;;3.70;3.40;;;;;;;;;;4982082;28;20276;-71
2023/06/05 02:08:05;;;;;;;3.57;3.20;;;;;;;;;;4989282;28;20217;-72
2023/06/05 02:10:33;;;;;;;4.03;3.63;;;;;;;;;;4966533;28;20229;-72
2023/06/05 02:13:01;;;;;;;6.50;3.43;;;;;;;;;;4939171;28;20248;-71
2023/06/05 02:15:31;;;;;;;3.70;3.40;;;;;;;;;;4983749;28;20214;-72
2023/06/05 02:18:02;;;;;;;3.77;2.90;;;;;;;;;;4999998;28;20231;-72
2023/06/05 02:20:30;;;;;;;4.37;3.70;;;;;;;;;;4985529;28;20231;-72
2023/06/05 02:22:56;;;;;;;3.70;3.40;;;;;;;;;;5009805;28;20296;-71
2023/06/05 02:25:25;;;;;;;3.70;3.40;;;;;;;;;;4952297;28;20229;-73
2023/06/05 02:27:54;;;;;;;4.17;3.20;;;;;;;;;;4983613;28;20229;-72
2023/06/05 02:30:22;;;;;;;3.70;3.40;;;;;;;;;;4982030;28;20714;-72
2023/06/05 02:32:48;;;;;;;3.87;3.27;;;;;;;;;;4985643;28;20300;-72
2023/06/05 02:35:24;;;;;;;4.83;3.90;;;;;;;;;;4967270;28;20230;-72
2023/06/05 02:37:50;;;;;;;5.33;4.30;;;;;;;;;;4973273;28;20217;-72
2023/06/05 02:40:16;;;;;;;3.93;3.60;;;;;;;;;;4971084;28;20229;-72
2023/06/05 02:42:44;;;;;;;5.33;3.93;;;;;;;;;;4952706;28;20696;-72
2023/06/05 02:45:10;;;;;;;4.27;3.83;;;;;;;;;;4968068;28;20225;-72
2023/06/05 02:47:38;;;;;;;4.87;3.60;;;;;;;;;;4979659;28;20222;-72
2023/06/05 02:50:09;;;;;;;4.83;3.70;;;;;;;;;;4989632;28;20233;-71
2023/06/05 02:52:41;;;;;;;4.53;4.00;;;;;;;;;;4973484;28;20565;-72
2023/06/05 02:55:20;;;;;;;5.47;4.10;;;;;;;;;;4995836;28;20227;-73
2023/06/05 02:57:49;;;;;;;5.87;3.90;;;;;;;;;;4972537;28;20301;-73
2023/06/05 03:00:23;;;;;;;4.80;4.30;;;;;;;;;;4976273;28;20240;-72
2023/06/05 03:02:52;;;;;;;5.80;4.40;;;;;;;;;;4985360;28;20229;-72
2023/06/05 03:05:25;;;;;;;5.13;4.27;;;;;;;;;;4985247;28;20745;-72
2023/06/05 03:07:58;;;;;;;4.30;3.87;;;;;;;;;;4966288;28;20256;-72
2023/06/05 03:10:31;;;;;;;4.60;4.10;;;;;;;;;;4985337;28;20245;-73
2023/06/05 03:12:57;;;;;;;5.10;4.30;;;;;;;;;;4990055;28;20237;-72
2023/06/05 03:15:25;;;;;;;5.00;4.30;;;;;;;;;;4983072;28;20220;-73
2023/06/05 03:17:57;;;;;;;7.03;4.13;;;;;;;;;;4983937;28;20218;-72
2023/06/05 03:20:29;;;;;;;4.27;3.87;;;;;;;;;;4987344;28;20232;-72
2023/06/05 03:22:56;;;;;;;4.60;4.20;;;;;;;;;;4988834;28;20214;-72
2023/06/05 03:25:22;;;;;;;4.90;4.23;;;;;;;;;;4982558;28;20225;-72
2023/06/05 03:27:54;;;;;;;4.83;4.27;;;;;;;;;;4971492;28;20240;-72
2023/06/05 03:30:22;;;;;;;4.17;3.80;;;;;;;;;;4970498;28;20267;-72
2023/06/05 03:32:52;;;;;;;6.80;4.47;;;;;;;;;;4994368;28;20217;-72
2023/06/05 03:35:21;;;;;;;5.43;4.60;;;;;;;;;;4964256;28;20221;-72
2023/06/05 03:37:47;;;;;;;5.97;4.83;;;;;;;;;;4971635;28;20236;-72
2023/06/05 03:40:12;;;;;;;5.70;5.10;;;;;;;;;;5038383;23;20756;-82
2023/06/05 03:42:41;;;;;;;4.60;4.20;;;;;;;;;;5040385;28;20560;-80
2023/06/05 03:45:08;;;;;;;6.77;5.00;;;;;;;;;;5015645;28;20212;-79
2023/06/05 03:47:36;;;;;;;5.73;4.83;;;;;;;;;;5019296;28;20289;-80
2023/06/05 03:50:11;;;;;;;5.80;4.63;;;;;;;;;;5032750;28;20232;-80
2023/06/05 03:52:41;;;;;;;5.37;4.87;;;;;;;;;;5018234;28;20216;-80
2023/06/05 03:55:09;;;;;;;5.77;5.17;;;;;;;;;;5023512;28;20271;-80
2023/06/05 03:57:37;;;;;;;7.03;5.43;;;;;;;;;;5036138;28;20226;-81
2023/06/05 04:00:09;;;;;;;5.60;4.70;;;;;;;;;;5045225;28;20207;-80
2023/06/05 04:02:38;;;;;;;7.10;5.33;;;;;;;;;;5023819;28;20224;-79
2023/06/05 04:05:12;;;;;;;5.47;4.97;;;;;;;;;;5029131;28;20223;-79
2023/06/05 04:07:39;;;;;;;6.77;5.40;;;;;;;;;;5053186;28;20220;-80
2023/06/05 04:10:05;;;;;;;5.93;5.07;;;;;;;;;;5014022;28;20278;-79
2023/06/05 04:12:30;;;;;;;5.70;5.00;;;;;;;;;;5028998;28;20215;-80
2023/06/05 04:14:59;;;;;;;6.13;5.33;;;;;;;;;;5024925;28;20307;-81
2023/06/05 04:17:25;;;;;;;5.43;4.93;;;;;;;;;;5019005;28;20227;-80
2023/06/05 04:19:52;;;;;;;6.13;5.07;;;;;;;;;;5022373;28;20227;-80
2023/06/05 04:22:18;;;;;;;6.60;4.93;;;;;;;;;;5028443;28;20221;-81
2023/06/05 04:24:44;;;;;;;5.23;4.73;;;;;;;;;;5042576;28;20226;-80
2023/06/05 04:27:12;;;;;;;5.90;4.70;;;;;;;;;;5039795;28;20219;-79
2023/06/05 04:29:39;;;;;;;6.70;5.13;;;;;;;;;;5061692;28;20215;-80
2023/06/05 04:32:05;;;;;;;6.43;4.77;;;;;;;;;;5008338;28;20241;-80
2023/06/05 04:34:31;;;;;;;5.90;5.30;;;;;;;;;;5032254;28;20211;-81
2023/06/05 04:36:59;;;;;;;6.00;5.40;;;;;;;;;;5042836;28;20224;-81
2023/06/05 04:39:27;;;;;;;6.27;5.67;;;;;;;;;;5039440;28;20220;-82
2023/06/05 04:41:54;;;;;;;7.73;5.07;;;;;;;;;;5023628;28;20220;-81
2023/06/05 04:44:25;;;;;;;5.63;5.03;;;;;;;;;;5008412;28;20216;-81
2023/06/05 04:46:55;;;;;;;5.53;5.03;;;;;;;;;;5038508;28;20223;-81
2023/06/05 04:49:24;;;;;;;6.27;5.27;;;;;;;;;;5004448;28;20225;-81
2023/06/05 04:52:00;;;;;;;5.93;5.33;;;;;;;;;;5014808;28;20216;-81
2023/06/05 04:54:26;;;;;;;6.20;5.07;;;;;;;;;;5037321;28;20227;-81
2023/06/05 04:56:52;;;;;;;6.73;5.63;;;;;;;;;;5030279;28;20540;-81
2023/06/05 04:59:20;;;;;;;5.97;5.37;;;;;;;;;;5021384;28;20273;-80
2023/06/05 05:01:47;;;;;;;7.40;5.40;;;;;;;;;;5021686;28;20207;-79
2023/06/05 05:04:12;;;;;;;6.00;5.40;;;;;;;;;;5012149;28;20234;-79
2023/06/05 05:06:40;;;;;;;5.77;5.20;;;;;;;;;;5007206;28;20620;-79
2023/06/05 05:09:06;;;;;;;6.13;5.37;;;;;;;;;;5041034;28;20247;-81
2023/06/05 05:11:32;;;;;;;7.13;5.30;;;;;;;;;;5035529;28;20635;-81
2023/06/05 05:14:01;;;;;;;6.50;5.40;;;;;;;;;;5019451;28;20274;-82
2023/06/05 05:16:27;;;;;;;5.93;5.33;;;;;;;;;;5034126;28;20212;-81
2023/06/05 05:18:53;;;;;;;7.07;5.17;;;;;;;;;;5032295;28;20241;-78
2023/06/05 05:21:20;;;;;;;6.27;5.03;;;;;;;;;;5003109;28;20227;-81
2023/06/05 05:23:46;;;;;;;6.47;5.20;;;;;;;;;;5029215;28;20738;-81
2023/06/05 05:26:11;;;;;;;6.27;5.33;;;;;;;;;;5025856;28;20220;-81
2023/06/05 05:28:40;;;;;;;6.65;5.18;;;;;;;;;;5056142;28;20244;-81
2023/06/05 05:31:06;;;;;;;5.68;5.15;;;;;;;;;;5047037;28;20258;-81
2023/06/05 05:33:34;;;;;;;5.60;5.00;;;;;;;;;;5021712;28;20208;-82
2023/06/05 05:36:01;;;;;;;5.20;4.70;;;;;;;;;;5014891;28;20223;-82
2023/06/05 05:38:28;;;;;;;5.73;5.20;;;;;;;;;;5028222;28;20246;-81
2023/06/05 05:40:54;;;;;;;5.07;4.63;;;;;;;;;;5023474;28;20211;-82
2023/06/05 05:43:23;;;;;;;4.87;4.47;;;;;;;;;;5039377;28;20227;-81
2023/06/05 05:45:51;;;;;;;6.30;4.85;;;;;;;;;;5021065;28;20228;-82
2023/06/05 05:48:22;;;;;;;5.85;4.60;;;;;;;;;;5047226;28;20572;-81
2023/06/05 05:50:48;;;;;;;5.13;4.10;;;;;;;;;;5026032;28;20277;-81
2023/06/05 05:53:17;;;;;;;5.63;4.18;;;;;;;;;;5024265;28;20219;-79
2023/06/05 05:55:44;;;;;;;5.88;3.67;;;;;;;;;;5051626;28;20245;-81
2023/06/05 05:58:10;;;;;;;5.05;4.13;;;;;;;;;;5040029;28;20224;-81
2023/06/05 06:00:36;;;;;;;5.15;4.18;;;;;;;;;;5032159;28;20237;-79
2023/06/05 06:03:02;;;;;;;4.57;3.80;;;;;;;;;;5025195;28;20215;-81
2023/06/05 06:05:29;;;;;;;3.85;3.50;;;;;;;;;;5038109;28;20224;-81
2023/06/05 06:07:55;;;;;;;5.00;3.55;;;;;;;;;;5053537;28;20948;-82
2023/06/05 06:10:22;;;;;;;4.72;3.45;;;;;;;;;;5037444;28;20238;-80
2023/06/05 06:12:48;;;;;;;3.65;3.28;;;;;;;;;;5011722;28;20219;-80
2023/06/05 06:15:15;;;;;;;3.72;3.30;;;;;;;;;;5050484;28;20775;-81
2023/06/05 06:17:41;;;;;;;3.92;3.00;;;;;;;;;;5034926;28;20220;-81
2023/06/05 06:20:08;;;;;;;5.57;3.05;;;;;;;;;;5020800;28;20703;-80
2023/06/05 06:22:34;;;;;;;2.80;2.45;;;;;;;;;;5036684;28;20707;-81
2023/06/05 06:25:01;;;;;;;3.47;2.33;;;;;;;;;;5016437;28;20234;-79
2023/06/05 06:27:29;;;;;;;3.28;2.33;;;;;;;;;;5030466;28;20619;-81
2023/06/05 06:29:58;;;;;;;3.95;2.10;;;;;;;;;;5017874;28;20223;-80
2023/06/05 06:32:25;;;;;;;2.75;2.50;;;;;;;;;;5040192;28;20597;-82
2023/06/05 06:34:56;;;;;;;2.50;2.30;;;;;;;;;;5021021;28;20200;-81
2023/06/05 06:37:21;;;;;;;2.50;2.30;;;;;;;;;;5038735;28;20258;-80
2023/06/05 06:39:50;;;;;;;3.53;2.35;;;;;;;;;;5021270;28;20672;-79
2023/06/05 06:42:18;;;;;;;2.75;2.20;;;;;;;;;;5034050;28;20219;-81
2023/06/05 06:45:09;;;;;;;5.38;2.38;;;;;;;;;;5013909;28;20239;-78
2023/06/05 06:47:44;;;;;;;4.15;2.30;;;;;;;;;;5030450;28;20227;-82
2023/06/05 06:50:09;;;;;;;3.13;1.90;;;;;;;;;;5015727;28;20260;-82
2023/06/05 06:52:35;;;;;;;5.78;2.33;;;;;;;;;;4999108;28;20215;-83
2023/06/05 06:55:01;;;;;;;3.60;2.10;;;;;;;;;;5028168;28;20310;-82
2023/06/05 06:57:26;;;;;;;2.45;1.92;;;;;;;;;;5017870;28;20219;-80
2023/06/05 06:59:54;;;;;;;7.88;2.08;;;;;;;;;;5024783;28;20281;-80
2023/06/05 07:02:22;;;;;;;2.40;2.20;;;;;;;;;;5000012;28;20223;-81
2023/06/05 07:04:53;;;;;;;4.90;2.35;;;;;;;;;;5010023;28;20234;-80
2023/06/05 07:07:19;;;;;;;4.10;2.10;;;;;;;;;;5029431;28;20754;-80
2023/06/05 07:09:48;;;;;;;3.35;2.05;;;;;;;;;;5042010;28;20216;-79
2023/06/05 07:12:14;;;;;;;2.70;1.90;;;;;;;;;;5017571;28;20260;-81
2023/06/05 07:14:44;;;;;;;2.20;1.88;;;;;;;;;;5020117;28;20326;-79
2023/06/05 07:17:24;;;;;;;3.55;1.75;;;;;;;;;;5018148;28;20283;-79
2023/06/05 07:19:50;;;;;;;2.53;2.00;;;;;;;;;;5034053;28;20918;-80
2023/06/05 07:22:20;;;;;;;2.50;1.90;;;;;;;;;;5027074;28;20212;-80
2023/06/05 07:24:46;;;;;;;2.92;1.80;;;;;;;;;;5033321;28;20285;-80
2023/06/05 07:27:11;;;;;;;2.97;2.00;;;;;;;;;;5015210;28;20224;-80
2023/06/05 07:29:37;;;;;;;3.22;2.10;;;;;;;;;;5016058;28;20259;-80
2023/06/05 07:32:08;;;;;;;2.95;1.80;;;;;;;;;;5032500;28;21056;-81
2023/06/05 07:34:34;;;;;;;2.63;1.60;;;;;;;;;;5026490;28;20219;-80
2023/06/05 07:37:00;;;;;;;3.33;2.00;;;;;;;;;;5033939;28;20235;-79
2023/06/05 07:39:26;;;;;;;1.75;1.52;;;;;;;;;;5017293;28;20697;-81
2023/06/05 07:41:53;;;;;;;2.72;1.80;;;;;;;;;;5025791;28;20216;-79
2023/06/05 07:44:21;;;;;;;2.85;1.70;;;;;;;;;;5024397;28;20216;-80
2023/06/05 07:46:47;;;;;;;1.80;1.70;;;;;;;;;;5009076;28;20578;-80
2023/06/05 07:49:12;;;;;;;1.80;1.70;;;;;;;;;;5012159;28;20291;-79
2023/06/05 07:51:38;;;;;;;3.58;1.80;;;;;;;;;;5035806;28;20403;-79
2023/06/05 07:54:08;;;;;;;1.90;1.70;;;;;;;;;;5015805;28;20302;-79
2023/06/05 07:56:34;;;;;;;2.15;1.80;;;;;;;;;;5026062;28;20238;-79
2023/06/05 07:59:00;;;;;;;2.30;1.80;;;;;;;;;;5029690;28;20215;-80
2023/06/05 08:01:29;;;;;;;1.80;1.63;;;;;;;;;;5016048;28;20227;-79
2023/06/05 08:03:55;;;;;;;3.55;1.90;;;;;;;;;;5025643;28;20243;-79
2023/06/05 08:06:24;;;;;;;2.03;1.67;;;;;;;;;;5008915;28;20228;-80
2023/06/05 08:08:54;;;;;;;1.95;1.60;;;;;;;;;;5017164;28;20276;-80
2023/06/05 08:11:20;;;;;;;2.90;1.45;;;;;;;;;;5013201;28;20240;-80
2023/06/05 08:13:45;;;;;;;2.25;1.70;;;;;;;;;;5029706;28;20226;-79
2023/06/05 08:16:11;;;;;;;2.50;1.75;;;;;;;;;;5024231;28;20241;-80
2023/06/05 08:18:36;;;;;;;2.10;1.90;;;;;;;;;;5025286;28;20658;-79
2023/06/05 08:21:02;;;;;;;3.58;1.98;;;;;;;;;;5019921;28;20665;-80
2023/06/05 08:23:30;;;;;;;2.10;1.60;;;;;;;;;;5028604;28;20249;-79
2023/06/05 08:26:22;;;;;;;1.85;1.70;;;;;;;;;;5030346;28;20219;-79
2023/06/05 08:28:48;;;;;;;1.92;1.70;;;;;;;;;;5047433;28;20223;-79
2023/06/05 08:31:14;;;;;;;2.35;1.80;;;;;;;;;;5045666;28;20224;-79
2023/06/05 08:33:42;;;;;;;1.65;1.55;;;;;;;;;;5018329;28;20242;-79
2023/06/05 08:36:08;;;;;;;4.13;1.83;;;;;;;;;;5026379;28;20676;-78
2023/06/05 08:38:33;;;;;;;1.63;1.52;;;;;;;;;;5021301;28;20247;-78
2023/06/05 08:41:05;;;;;;;2.33;1.70;;;;;;;;;;5027807;28;20306;-80
2023/06/05 08:43:31;;;;;;;2.25;1.50;;;;;;;;;;5032761;28;20672;-81
2023/06/05 08:45:57;;;;;;;3.22;1.50;;;;;;;;;;5040595;28;20235;-81
2023/06/05 08:48:25;;;;;;;1.70;1.40;;;;;;;;;;5014605;28;20234;-80
2023/06/05 08:50:51;;;;;;;1.92;1.63;;;;;;;;;;5014673;28;20280;-81
2023/06/05 08:53:17;;;;;;;2.20;1.77;;;;;;;;;;5020495;28;20219;-82
2023/06/05 08:55:47;;;;;;;1.83;1.73;;;;;;;;;;5022858;28;20227;-79
2023/06/05 08:58:13;;;;;;;1.60;1.50;;;;;;;;;;5031508;28;20226;-80
2023/06/05 09:00:38;;;;;;;2.65;1.58;;;;;;;;;;5023382;28;20239;-79
2023/06/05 09:03:04;;;;;;;2.55;1.40;;;;;;;;;;5012739;28;20238;-81
2023/06/05 09:05:32;;;;;;;1.95;1.70;;;;;;;;;;5015929;28;20228;-80
2023/06/05 09:07:58;;;;;;;2.25;1.80;;;;;;;;;;5028336;28;20241;-80
2023/06/05 09:10:26;;;;;;;1.90;1.80;;;;;;;;;;5009355;28;20329;-79
2023/06/05 09:12:59;;;;;;;2.50;1.50;;;;;;;;;;5010272;28;20867;-80
2023/06/05 09:15:29;;;;;;;2.75;1.48;;;;;;;;;;5027231;28;20218;-81
2023/06/05 09:18:02;;;;;;;1.45;1.35;;;;;;;;;;5042923;28;20522;-80
2023/06/05 09:20:29;;;;;;;3.38;1.58;;;;;;;;;;5032136;28;20223;-81
2023/06/05 09:22:57;;;;;;;3.78;1.63;;;;;;;;;;5029684;28;20211;-79
2023/06/05 09:25:25;;;;;;;1.50;1.40;;;;;;;;;;5045197;28;20772;-79
2023/06/05 09:28:06;;;;;;;1.42;1.33;;;;;;;;;;5030990;28;20213;-80
2023/06/05 09:30:32;;;;;;;1.50;1.40;;;;;;;;;;5011154;28;20277;-82
2023/06/05 09:33:08;;;;;;;1.52;1.33;;;;;;;;;;5039952;28;20244;-79
2023/06/05 09:35:38;;;;;;;1.60;1.50;;;;;;;;;;5037212;28;20219;-79
2023/06/05 09:38:25;;;;;;;1.73;1.63;;;;;;;;;;5044240;28;20212;-77
2023/06/05 09:40:53;;;;;;;1.63;1.40;;;;;;;;;;5008950;28;20219;-78
2023/06/05 09:43:24;;;;;;;1.80;1.65;;;;;;;;;;5008768;28;20223;-79
2023/06/05 09:45:54;;;;;;;1.80;1.58;;;;;;;;;;5011700;28;20226;-79
2023/06/05 09:48:22;;;;;;;1.85;1.70;;;;;;;;;;5034824;28;21113;-79
2023/06/05 09:50:47;;;;;;;2.50;1.63;;;;;;;;;;5004662;28;20231;-78
2023/06/05 09:53:15;;;;;;;1.48;1.38;;;;;;;;;;5044942;28;20226;-78
2023/06/05 09:55:41;;;;;;;1.48;1.30;;;;;;;;;;5037463;28;20240;-79
2023/06/05 09:58:13;;;;;;;1.40;1.30;;;;;;;;;;5020186;28;20223;-79
2023/06/05 10:00:41;;;;;;;1.40;1.30;;;;;;;;;;5012561;28;20220;-78
2023/06/05 10:03:10;;;;;;;2.70;1.50;;;;;;;;;;5034665;28;20273;-80
2023/06/05 10:05:37;;;;;;;1.65;1.55;;;;;;;;;;5011525;28;20223;-81
2023/06/05 10:08:05;;;;;;;1.40;1.30;;;;;;;;;;5021690;28;20334;-79
2023/06/05 10:10:36;;;;;;;1.25;1.15;;;;;;;;;;5026984;28;20234;-79
2023/06/05 10:13:02;;;;;;;2.00;1.70;;;;;;;;;;5016315;28;20226;-80
2023/06/05 10:15:30;;;;;;;2.33;1.50;;;;;;;;;;5022185;22;20219;-73
2023/06/05 10:17:56;;;;;;;3.10;1.40;;;;;;;;;;5007675;28;20226;-73
2023/06/05 10:20:23;;;;;;;2.20;1.50;;;;;;;;;;4990252;28;20218;-73
2023/06/05 10:22:52;;;;;;;2.33;1.40;;;;;;;;;;4994774;28;20600;-73
2023/06/05 10:25:19;;;;;;;2.67;1.50;;;;;;;;;;4985697;28;20241;-73
2023/06/05 10:27:55;;;;;;;1.33;1.23;;;;;;;;;;4999212;28;20221;-73
2023/06/05 10:30:35;;;;;;;1.20;1.10;;;;;;;;;;5001489;28;20240;-73
2023/06/05 10:33:27;;;;;;;1.30;1.20;;;;;;;;;;5007574;28;20574;-74
2023/06/05 10:36:32;;;;;;;1.30;1.20;;;;;;;;;;5017353;28;20224;-73
2023/06/05 10:39:00;;;;;;;1.65;1.10;;;;;;;;;;5028330;28;20303;-72
2023/06/05 10:41:25;;;;;;;1.48;1.20;;;;;;;;;;5021712;28;20220;-72
2023/06/05 10:43:55;;;;;;;1.33;1.23;;;;;;;;;;4996124;28;20331;-74
2023/06/05 10:46:26;;;;;;;1.30;1.13;;;;;;;;;;4992391;28;20213;-73
2023/06/05 10:49:07;;;;;;;1.45;1.35;;;;;;;;;;5000072;28;20718;-73
2023/06/05 10:51:42;;;;;;;1.42;1.30;;;;;;;;;;5008683;28;20720;-73
2023/06/05 10:54:23;;;;;;;1.70;1.27;;;;;;;;;;5025805;28;20583;-73
2023/06/05 10:59:20;;;;;;;1.30;1.20;;;;;;;;;;5026978;28;20267;-74
2023/06/05 11:02:04;;;;;;;1.10;1.00;;;;;;;;;;5006308;28;20227;-75
2023/06/05 11:04:52;;;;;;;1.90;1.30;;;;;;;;;;5020089;28;20228;-74
2023/06/05 11:07:20;;;;;;;2.97;1.63;;;;;;;;;;5019487;28;20213;-74
2023/06/05 11:10:21;;;;;;;1.30;1.20;;;;;;;;;;5019673;28;20227;-74
2023/06/05 11:12:47;;;;;;;1.40;1.30;;;;;;;;;;4996228;28;20225;-73
2023/06/05 11:15:26;;;;;;;1.52;1.42;;;;;;;;;;5002872;28;20214;-74
2023/06/05 11:17:56;;;;;;;1.30;1.15;;;;;;;;;;5008684;28;20221;-72
2023/06/05 11:20:27;;;;;;;1.30;1.20;;;;;;;;;;5028374;23;20225;-72
2023/06/05 11:22:53;;;;;;;2.38;1.33;;;;;;;;;;4984808;28;22016;-72
2023/06/05 11:25:21;;;;;;;1.40;1.30;;;;;;;;;;4996014;28;20217;-74
2023/06/05 11:28:01;;;;;;;1.65;1.35;;;;;;;;;;4997200;28;20263;-72
2023/06/05 11:30:34;;;;;;;1.83;1.25;;;;;;;;;;4991471;28;20237;-72
2023/06/05 11:33:08;;;;;;;1.27;1.17;;;;;;;;;;4984701;28;20963;-72
2023/06/05 11:35:34;;;;;;;1.45;1.10;;;;;;;;;;4998990;28;20275;-71
2023/06/05 11:38:09;;;;;;;1.80;1.35;;;;;;;;;;4975834;28;20221;-72
2023/06/05 11:40:35;;;;;;;2.83;1.38;;;;;;;;;;5005038;28;20221;-72
2023/06/05 11:43:08;;;;;;;1.38;1.05;;;;;;;;;;5006492;28;20201;-74
2023/06/05 11:45:36;;;;;;;1.60;1.40;;;;;;;;;;4982891;28;20215;-72
2023/06/05 11:48:11;;;;;;;2.47;1.33;;;;;;;;;;4972144;28;20217;-74
2023/06/05 11:50:38;;;;;;;2.72;1.65;;;;;;;;;;4985016;28;20295;-72
2023/06/05 11:53:09;;;;;;;2.75;1.60;;;;;;;;;;5001804;28;20597;-73
2023/06/05 11:55:55;;;;;;;3.35;1.52;;;;;;;;;;4995939;28;20232;-72
2023/06/05 11:58:29;;;;;;;2.22;1.40;;;;;;;;;;4989296;28;20734;-73
2023/06/05 12:01:12;;;;;;;1.55;1.35;;;;;;;;;;4998303;28;20228;-73
2023/06/05 12:03:39;;;;;;;1.38;1.25;;;;;;;;;;5000227;28;20219;-73
2023/06/05 12:06:09;;;;;;;1.42;1.27;;;;;;;;;;4988994;28;20229;-73
2023/06/05 12:08:35;;;;;;;1.80;1.50;;;;;;;;;;4989885;28;20228;-73
2023/06/05 12:11:02;;;;;;;1.45;1.30;;;;;;;;;;5014839;28;20225;-73
2023/06/05 12:13:47;;;;;;;1.63;1.23;;;;;;;;;;4986938;28;20602;-75
2023/06/05 12:16:13;;;;;;;1.42;1.33;;;;;;;;;;4988761;28;20599;-74
2023/06/05 12:18:44;;;;;;;1.40;1.30;;;;;;;;;;4973494;28;20221;-75
2023/06/05 12:21:21;;;;;;;1.40;1.30;;;;;;;;;;4988036;28;20586;-71
2023/06/05 12:23:46;;;;;;;2.60;1.60;;;;;;;;;;5015268;28;20685;-73
2023/06/05 12:26:12;;;;;;;2.30;1.50;;;;;;;;;;4982767;28;20201;-75
2023/06/05 12:28:39;;;;;;;1.50;1.40;;;;;;;;;;5001009;28;20235;-73
2023/06/05 12:31:09;;;;;;;2.13;1.35;;;;;;;;;;5005369;28;20231;-75
2023/06/05 12:33:47;;;;;;;1.60;1.50;;;;;;;;;;4983961;28;20225;-74
2023/06/05 12:36:16;;;;;;;5.05;1.55;;;;;;;;;;4997870;28;20609;-73
2023/06/05 12:38:41;;;;;;;1.58;1.38;;;;;;;;;;4984534;28;20933;-74
2023/06/05 12:41:07;;;;;;;3.15;1.50;;;;;;;;;;4964176;28;20221;-74
2023/06/05 12:43:35;;;;;;;1.58;1.23;;;;;;;;;;4983816;28;20244;-73
2023/06/05 12:46:01;;;;;;;3.22;1.50;;;;;;;;;;4972306;28;20221;-73
2023/06/05 12:48:31;;;;;;;1.60;1.50;;;;;;;;;;4997054;28;20605;-74
2023/06/05 12:50:57;;;;;;;2.08;1.40;;;;;;;;;;5005377;28;20287;-74
2023/06/05 12:53:27;;;;;;;1.80;1.70;;;;;;;;;;4988462;28;20220;-74
2023/06/05 12:55:55;;;;;;;1.42;1.33;;;;;;;;;;4968491;28;20252;-76
2023/06/05 12:58:24;;;;;;;2.25;1.65;;;;;;;;;;4999375;28;20300;-75
2023/06/05 13:00:53;;;;;;;2.55;1.60;;;;;;;;;;4983456;28;20642;-73
2023/06/05 13:03:22;;;;;;;1.50;1.40;;;;;;;;;;4964833;28;20208;-74
2023/06/05 13:05:48;;;;;;;1.40;1.30;;;;;;;;;;4994041;28;20224;-75
2023/06/05 13:08:14;;;;;;;1.35;1.25;;;;;;;;;;4986820;28;20217;-74
2023/06/05 13:10:40;;;;;;;1.48;1.38;;;;;;;;;;4989540;28;20229;-73
2023/06/05 13:13:05;;;;;;;1.67;1.58;;;;;;;;;;4996380;28;20217;-74
2023/06/05 13:15:33;;;;;;;1.48;1.38;;;;;;;;;;4985075;28;20613;-74
2023/06/05 13:17:59;;;;;;;1.60;1.50;;;;;;;;;;4999955;28;20579;-74
2023/06/05 13:20:27;;;;;;;1.40;1.30;;;;;;;;;;4995334;28;20232;-73
2023/06/05 13:22:55;;;;;;;2.05;1.65;;;;;;;;;;4972821;28;20220;-74
2023/06/05 13:25:20;;;;;;;1.67;1.40;;;;;;;;;;4971078;28;20742;-74
2023/06/05 13:27:46;;;;;;;1.70;1.60;;;;;;;;;;4998029;28;20213;-74
2023/06/05 13:30:14;;;;;;;1.70;1.60;;;;;;;;;;4969473;28;20519;-74
2023/06/05 13:32:41;;;;;;;2.85;1.50;;;;;;;;;;4988775;28;20221;-75
2023/06/05 13:35:11;;;;;;;2.83;1.48;;;;;;;;;;4998987;28;20221;-73
2023/06/05 13:37:42;;;;;;;1.42;1.30;;;;;;;;;;4997336;28;20217;-72
2023/06/05 13:40:11;;;;;;;2.47;1.40;;;;;;;;;;4985252;28;20208;-73
2023/06/05 13:42:38;;;;;;;1.73;1.40;;;;;;;;;;4971348;28;20217;-72
2023/06/05 13:45:07;;;;;;;1.52;1.42;;;;;;;;;;4971657;28;20580;-72
2023/06/05 13:47:33;;;;;;;2.05;1.60;;;;;;;;;;4992669;28;20312;-71
2023/06/05 13:49:58;;;;;;;1.60;1.27;;;;;;;;;;4988785;28;20233;-73
2023/06/05 13:52:25;;;;;;;1.58;1.48;;;;;;;;;;5002851;28;20345;-71
2023/06/05 13:54:55;;;;;;;2.88;1.42;;;;;;;;;;4986347;28;20221;-73
2023/06/05 13:57:23;;;;;;;1.58;1.48;;;;;;;;;;5007442;28;20225;-72
2023/06/05 13:59:48;;;;;;;2.03;1.70;;;;;;;;;;5001318;28;20224;-73
2023/06/05 14:02:14;;;;;;;3.88;1.70;;;;;;;;;;4986447;28;20212;-72
2023/06/05 14:04:39;;;;;;;1.60;1.50;;;;;;;;;;4977983;28;20794;-72
2023/06/05 14:07:05;;;;;;;1.95;1.55;;;;;;;;;;5017690;28;20706;-72
2023/06/05 14:09:36;;;;;;;1.92;1.50;;;;;;;;;;4994420;28;20235;-74
2023/06/05 14:12:04;;;;;;;1.65;1.55;;;;;;;;;;4988041;28;20221;-74
2023/06/05 14:14:32;;;;;;;1.58;1.45;;;;;;;;;;4990528;28;20245;-74
2023/06/05 14:17:02;;;;;;;1.55;1.45;;;;;;;;;;4986276;28;20224;-72
2023/06/05 14:19:30;;;;;;;1.50;1.40;;;;;;;;;;5007597;28;20225;-72
2023/06/05 14:21:56;;;;;;;2.45;1.42;;;;;;;;;;5004524;28;20279;-73
2023/06/05 14:24:23;;;;;;;1.88;1.70;;;;;;;;;;5002251;28;20236;-72
2023/06/05 14:26:49;;;;;;;1.55;1.45;;;;;;;;;;5003911;28;20321;-72
2023/06/05 14:29:17;;;;;;;1.38;1.27;;;;;;;;;;4970790;28;20217;-72
2023/06/05 14:31:42;;;;;;;4.97;1.52;;;;;;;;;;5015031;28;20295;-73
2023/06/05 14:34:10;;;;;;;4.15;1.50;;;;;;;;;;4991598;28;20213;-72
2023/06/05 14:36:38;;;;;;;4.07;1.40;;;;;;;;;;5000790;28;20702;-72
2023/06/05 14:39:06;;;;;;;2.60;1.42;;;;;;;;;;4998082;28;20715;-72
2023/06/05 14:41:32;;;;;;;1.50;1.40;;;;;;;;;;5001245;28;20252;-73
2023/06/05 14:43:58;;;;;;;1.73;1.50;;;;;;;;;;4985330;28;20587;-72
2023/06/05 14:46:28;;;;;;;1.90;1.67;;;;;;;;;;4992652;28;20212;-73
2023/06/05 14:48:54;;;;;;;1.70;1.60;;;;;;;;;;4987948;28;20224;-73
2023/06/05 14:51:19;;;;;;;1.63;1.52;;;;;;;;;;4985706;28;20610;-73
2023/06/05 14:53:45;;;;;;;1.70;1.60;;;;;;;;;;5004911;28;20228;-72
2023/06/05 14:56:12;;;;;;;1.85;1.50;;;;;;;;;;4983225;28;20218;-72